Time;durP1;ratioP1;P1;durP2;ratioP2;P2;SDS_P1;SDS_P2;PMS_P1;PMS_P2;Temp;Humidity;BMP_temperature;BMP_pressure;BME280_temperature;BME280_humidity;BME280_pressure;Samples;Min_cycle;Max_cycle;Signal;HPM_P1;HPM_P2
2023/03/04 00:02:23;;;;;;;14.23;5.25;;;;;;;;;;5033074;28;20291;-69
2023/03/04 00:04:50;;;;;;;11.43;3.78;;;;;;;;;;5033436;28;20281;-70
2023/03/04 00:07:17;;;;;;;21.60;6.07;;;;;;;;;;5032599;28;20238;-69
2023/03/04 00:09:45;;;;;;;10.55;4.45;;;;;;;;;;5036871;28;20221;-69
2023/03/04 00:12:12;;;;;;;15.63;4.22;;;;;;;;;;5036649;28;20196;-69
2023/03/04 00:14:39;;;;;;;12.48;3.65;;;;;;;;;;5036478;28;20285;-69
2023/03/04 00:17:07;;;;;;;13.02;3.92;;;;;;;;;;5036924;28;20288;-70
2023/03/04 00:19:35;;;;;;;17.80;3.40;;;;;;;;;;5036312;28;20229;-70
2023/03/04 00:22:03;;;;;;;19.25;4.72;;;;;;;;;;5036251;28;20197;-69
2023/03/04 00:24:30;;;;;;;16.27;4.50;;;;;;;;;;5036481;28;20216;-69
2023/03/04 00:26:57;;;;;;;17.60;5.88;;;;;;;;;;5036341;28;20224;-70
2023/03/04 00:29:25;;;;;;;15.20;4.15;;;;;;;;;;5036002;28;20195;-69
2023/03/04 00:31:52;;;;;;;14.05;3.92;;;;;;;;;;5036061;28;20645;-69
2023/03/04 00:34:19;;;;;;;14.75;4.40;;;;;;;;;;5036011;28;20202;-69
2023/03/04 00:36:48;;;;;;;18.38;4.55;;;;;;;;;;5036007;28;20196;-69
2023/03/04 00:39:16;;;;;;;17.83;4.80;;;;;;;;;;5036164;28;20225;-69
2023/03/04 00:41:43;;;;;;;13.38;5.30;;;;;;;;;;5036392;28;20191;-69
2023/03/04 00:44:10;;;;;;;12.05;3.70;;;;;;;;;;5036090;28;20195;-69
2023/03/04 00:46:37;;;;;;;14.23;4.15;;;;;;;;;;5035757;28;20194;-69
2023/03/04 00:49:05;;;;;;;14.32;3.97;;;;;;;;;;5035620;28;20206;-69
2023/03/04 00:51:32;;;;;;;18.30;4.20;;;;;;;;;;5036442;28;20261;-69
2023/03/04 00:54:00;;;;;;;24.13;4.50;;;;;;;;;;5035913;28;20201;-70
2023/03/04 00:56:27;;;;;;;8.60;5.50;;;;;;;;;;5036182;28;20202;-69
2023/03/04 00:58:55;;;;;;;10.80;3.42;;;;;;;;;;5035498;28;20201;-70
2023/03/04 01:01:22;;;;;;;20.00;4.45;;;;;;;;;;5035818;28;20198;-69
2023/03/04 01:03:49;;;;;;;12.63;3.53;;;;;;;;;;5035764;28;20253;-69
2023/03/04 01:06:16;;;;;;;14.07;3.75;;;;;;;;;;5035438;28;20233;-69
2023/03/04 01:08:44;;;;;;;13.82;3.80;;;;;;;;;;5035565;28;20222;-69
2023/03/04 01:11:12;;;;;;;14.38;4.55;;;;;;;;;;5035502;28;20660;-69
2023/03/04 01:13:39;;;;;;;13.68;4.38;;;;;;;;;;5035453;28;20190;-70
2023/03/04 01:16:09;;;;;;;12.25;3.20;;;;;;;;;;5036253;28;20195;-70
2023/03/04 01:18:36;;;;;;;11.95;5.22;;;;;;;;;;5035371;28;20209;-69
2023/03/04 01:21:04;;;;;;;14.38;5.25;;;;;;;;;;5034642;28;20212;-69
2023/03/04 01:23:31;;;;;;;22.33;4.85;;;;;;;;;;5035287;28;20197;-70
2023/03/04 01:25:58;;;;;;;20.73;4.63;;;;;;;;;;5035338;28;20191;-70
2023/03/04 01:28:26;;;;;;;15.00;4.00;;;;;;;;;;5035346;28;20211;-70
2023/03/04 01:30:54;;;;;;;16.90;4.68;;;;;;;;;;5035330;28;20548;-69
2023/03/04 01:33:21;;;;;;;18.77;4.03;;;;;;;;;;5035177;28;20210;-70
2023/03/04 01:35:48;;;;;;;21.35;5.07;;;;;;;;;;5035292;28;20282;-70
2023/03/04 01:38:15;;;;;;;14.98;3.97;;;;;;;;;;5034689;28;20201;-70
2023/03/04 01:40:42;;;;;;;14.82;4.22;;;;;;;;;;5035012;28;20202;-69
2023/03/04 01:43:12;;;;;;;14.93;4.43;;;;;;;;;;5034723;28;20199;-70
2023/03/04 01:45:41;;;;;;;14.73;4.95;;;;;;;;;;5034655;28;20198;-69
2023/03/04 01:48:09;;;;;;;12.60;3.42;;;;;;;;;;5034881;28;20214;-69
2023/03/04 01:50:37;;;;;;;17.70;4.20;;;;;;;;;;5034814;28;20189;-69
2023/03/04 01:53:05;;;;;;;14.10;3.78;;;;;;;;;;5034880;28;20191;-69
2023/03/04 01:55:32;;;;;;;17.88;4.18;;;;;;;;;;5034769;28;20191;-70
2023/03/04 01:57:59;;;;;;;10.98;3.92;;;;;;;;;;5034732;28;20203;-69
2023/03/04 02:00:29;;;;;;;11.52;3.72;;;;;;;;;;5034331;28;20283;-70
2023/03/04 02:03:00;;;;;;;6.93;3.30;;;;;;;;;;5034710;28;20193;-70
2023/03/04 02:05:27;;;;;;;14.23;4.90;;;;;;;;;;5034758;28;20238;-70
2023/03/04 02:07:55;;;;;;;10.75;3.75;;;;;;;;;;5035275;28;20568;-70
2023/03/04 02:10:23;;;;;;;16.05;4.28;;;;;;;;;;5034566;28;20189;-69
2023/03/04 02:12:50;;;;;;;12.07;3.63;;;;;;;;;;5034450;28;20195;-70
2023/03/04 02:15:17;;;;;;;17.70;4.50;;;;;;;;;;5034506;28;20199;-69
2023/03/04 02:17:45;;;;;;;16.00;5.13;;;;;;;;;;5034132;28;20203;-69
2023/03/04 02:20:20;;;;;;;14.40;3.08;;;;;;;;;;5034477;28;20198;-69
2023/03/04 02:22:51;;;;;;;10.05;3.60;;;;;;;;;;5034402;28;20182;-69
2023/03/04 02:25:21;;;;;;;11.63;4.00;;;;;;;;;;5034507;28;20272;-70
2023/03/04 02:27:49;;;;;;;14.55;3.20;;;;;;;;;;5034330;28;20207;-70
2023/03/04 02:30:17;;;;;;;7.80;3.42;;;;;;;;;;5034312;28;20188;-70
2023/03/04 02:32:44;;;;;;;7.85;3.30;;;;;;;;;;5033704;28;20214;-70
2023/03/04 02:35:15;;;;;;;10.98;3.50;;;;;;;;;;5034235;28;20195;-70
2023/03/04 02:37:42;;;;;;;19.38;4.15;;;;;;;;;;5034570;28;20183;-70
2023/03/04 02:40:14;;;;;;;15.73;3.25;;;;;;;;;;5033877;28;20216;-70
2023/03/04 02:42:43;;;;;;;8.77;3.88;;;;;;;;;;5033740;28;20180;-70
2023/03/04 02:45:25;;;;;;;14.70;3.78;;;;;;;;;;5034147;28;20190;-70
2023/03/04 02:47:54;;;;;;;11.82;3.42;;;;;;;;;;5034091;28;20221;-69
2023/03/04 02:50:21;;;;;;;6.53;3.55;;;;;;;;;;5034144;28;20233;-70
2023/03/04 02:52:48;;;;;;;13.70;3.50;;;;;;;;;;5033790;28;20202;-69
2023/03/04 02:55:15;;;;;;;12.07;3.95;;;;;;;;;;5033525;28;20198;-69
2023/03/04 02:57:43;;;;;;;6.07;2.47;;;;;;;;;;5033752;28;20195;-70
2023/03/04 03:00:10;;;;;;;9.27;3.05;;;;;;;;;;5033631;28;20197;-70
2023/03/04 03:02:38;;;;;;;11.55;3.40;;;;;;;;;;5033858;28;20191;-70
2023/03/04 03:05:06;;;;;;;9.27;4.15;;;;;;;;;;5033221;28;20191;-70
2023/03/04 03:07:34;;;;;;;17.35;3.85;;;;;;;;;;5033545;28;20248;-70
2023/03/04 03:10:02;;;;;;;20.67;4.30;;;;;;;;;;5033123;28;20191;-70
2023/03/04 03:12:29;;;;;;;10.65;2.85;;;;;;;;;;5034078;28;20192;-70
2023/03/04 03:14:56;;;;;;;11.48;3.78;;;;;;;;;;5033134;28;20228;-69
2023/03/04 03:17:23;;;;;;;11.85;3.58;;;;;;;;;;5033472;28;20197;-70
2023/03/04 03:19:50;;;;;;;16.15;2.88;;;;;;;;;;5033070;28;20204;-69
2023/03/04 03:22:19;;;;;;;7.32;2.83;;;;;;;;;;5033415;28;20199;-69
2023/03/04 03:24:46;;;;;;;9.27;3.33;;;;;;;;;;5033313;28;20197;-69
2023/03/04 03:27:13;;;;;;;11.02;3.90;;;;;;;;;;5033404;28;20293;-70
2023/03/04 03:29:40;;;;;;;10.52;3.92;;;;;;;;;;5033247;28;20223;-70
2023/03/04 03:32:07;;;;;;;11.45;3.50;;;;;;;;;;5034044;28;20192;-69
2023/03/04 03:34:35;;;;;;;10.95;3.42;;;;;;;;;;5033622;28;20637;-69
2023/03/04 03:37:02;;;;;;;7.30;2.97;;;;;;;;;;5033274;28;20606;-69
2023/03/04 03:39:30;;;;;;;7.28;3.35;;;;;;;;;;5033275;28;20195;-69
2023/03/04 03:41:57;;;;;;;12.02;3.58;;;;;;;;;;5032831;28;20282;-69
2023/03/04 03:44:25;;;;;;;16.50;3.75;;;;;;;;;;5036879;28;20194;-69
2023/03/04 03:46:52;;;;;;;11.52;3.88;;;;;;;;;;5037092;28;20201;-69
2023/03/04 03:49:19;;;;;;;10.27;3.22;;;;;;;;;;5036926;28;20208;-69
2023/03/04 03:51:46;;;;;;;9.90;3.17;;;;;;;;;;5036739;28;20200;-69
2023/03/04 03:54:13;;;;;;;4.05;3.13;;;;;;;;;;5037355;28;20282;-69
2023/03/04 03:56:42;;;;;;;16.00;4.30;;;;;;;;;;5037071;28;20194;-69
2023/03/04 03:59:09;;;;;;;10.48;3.53;;;;;;;;;;5037034;28;20207;-69
2023/03/04 04:01:36;;;;;;;8.20;3.00;;;;;;;;;;5036878;28;20202;-69
2023/03/04 04:04:04;;;;;;;6.13;2.78;;;;;;;;;;5036591;28;20201;-69
2023/03/04 04:06:31;;;;;;;21.45;3.45;;;;;;;;;;5036602;28;20231;-69
2023/03/04 04:08:58;;;;;;;13.07;3.70;;;;;;;;;;5036811;28;20653;-69
2023/03/04 04:11:25;;;;;;;7.57;2.97;;;;;;;;;;5036761;28;20194;-69
2023/03/04 04:13:54;;;;;;;12.02;3.65;;;;;;;;;;5036776;28;20223;-69
2023/03/04 04:16:21;;;;;;;17.33;4.47;;;;;;;;;;5036315;28;20206;-69
2023/03/04 04:18:48;;;;;;;12.85;3.17;;;;;;;;;;5036709;28;20194;-69
2023/03/04 04:21:16;;;;;;;9.07;3.40;;;;;;;;;;5036267;28;20282;-69
2023/03/04 04:23:43;;;;;;;10.75;2.80;;;;;;;;;;5036698;28;20191;-69
2023/03/04 04:26:10;;;;;;;11.45;3.70;;;;;;;;;;5036965;28;20198;-69
2023/03/04 04:28:37;;;;;;;13.85;3.50;;;;;;;;;;5036387;28;20309;-69
2023/03/04 04:31:08;;;;;;;10.32;3.08;;;;;;;;;;5036034;28;20187;-69
2023/03/04 04:33:36;;;;;;;10.57;2.83;;;;;;;;;;5036930;28;20190;-69
2023/03/04 04:36:03;;;;;;;10.07;2.90;;;;;;;;;;5036265;28;20214;-69
2023/03/04 04:38:31;;;;;;;6.47;2.60;;;;;;;;;;5036684;28;20286;-72
2023/03/04 04:40:58;;;;;;;12.82;3.22;;;;;;;;;;5036114;28;20198;-68
2023/03/04 04:43:26;;;;;;;16.30;3.67;;;;;;;;;;5036071;28;20663;-69
2023/03/04 04:45:53;;;;;;;6.78;2.78;;;;;;;;;;5036095;28;20195;-69
2023/03/04 04:48:22;;;;;;;12.23;3.50;;;;;;;;;;5035740;28;20760;-69
2023/03/04 04:50:55;;;;;;;8.05;3.35;;;;;;;;;;5035953;28;20197;-67
2023/03/04 04:53:22;;;;;;;14.25;3.80;;;;;;;;;;5051843;28;20260;-68
2023/03/04 04:55:49;;;;;;;11.75;2.75;;;;;;;;;;5053907;28;20201;-69
2023/03/04 04:58:16;;;;;;;7.60;3.13;;;;;;;;;;5054711;28;20198;-67
2023/03/04 05:00:43;;;;;;;9.52;2.85;;;;;;;;;;5054811;28;20197;-68
2023/03/04 05:03:11;;;;;;;7.90;3.55;;;;;;;;;;5054635;28;20191;-67
2023/03/04 05:05:39;;;;;;;5.63;2.83;;;;;;;;;;5054311;28;20332;-67
2023/03/04 05:08:06;;;;;;;7.85;2.92;;;;;;;;;;5054594;28;20183;-67
2023/03/04 05:10:34;;;;;;;8.55;3.00;;;;;;;;;;5055255;28;20198;-67
2023/03/04 05:13:01;;;;;;;3.45;2.20;;;;;;;;;;5054881;28;20190;-67
2023/03/04 05:15:28;;;;;;;9.55;2.88;;;;;;;;;;5054601;28;20197;-68
2023/03/04 05:17:56;;;;;;;9.00;3.65;;;;;;;;;;5054832;28;20204;-67
2023/03/04 05:20:24;;;;;;;10.30;4.85;;;;;;;;;;5054849;28;20190;-67
2023/03/04 05:22:53;;;;;;;7.35;3.58;;;;;;;;;;5054072;28;20206;-67
2023/03/04 05:25:20;;;;;;;9.13;3.20;;;;;;;;;;5054198;28;20195;-68
2023/03/04 05:27:47;;;;;;;16.05;3.00;;;;;;;;;;5054217;28;20195;-67
2023/03/04 05:30:14;;;;;;;13.30;3.65;;;;;;;;;;5054440;28;20214;-67
2023/03/04 05:32:41;;;;;;;15.38;3.15;;;;;;;;;;5054249;28;20191;-67
2023/03/04 05:35:09;;;;;;;9.90;2.80;;;;;;;;;;5054343;28;20632;-67
2023/03/04 05:37:36;;;;;;;6.90;2.60;;;;;;;;;;5054322;28;20217;-68
2023/03/04 05:40:06;;;;;;;10.35;2.65;;;;;;;;;;5054039;28;20190;-67
2023/03/04 05:42:33;;;;;;;5.22;3.03;;;;;;;;;;5054160;28;20208;-67
2023/03/04 05:45:00;;;;;;;14.73;3.60;;;;;;;;;;5054115;28;20190;-68
2023/03/04 05:47:27;;;;;;;9.88;2.80;;;;;;;;;;5054163;28;20540;-68
2023/03/04 05:49:55;;;;;;;10.68;3.25;;;;;;;;;;5054194;28;20210;-67
2023/03/04 05:52:22;;;;;;;10.60;3.80;;;;;;;;;;5063344;28;20216;-67
2023/03/04 05:54:49;;;;;;;16.10;3.30;;;;;;;;;;5074049;28;20191;-67
2023/03/04 05:57:18;;;;;;;12.07;3.60;;;;;;;;;;5073836;28;20571;-67
2023/03/04 05:59:45;;;;;;;12.70;2.70;;;;;;;;;;5073764;28;20235;-67
2023/03/04 06:02:12;;;;;;;5.45;3.00;;;;;;;;;;5073478;28;20192;-67
2023/03/04 06:04:39;;;;;;;7.40;2.90;;;;;;;;;;5073285;28;20198;-67
2023/03/04 06:07:06;;;;;;;11.65;2.70;;;;;;;;;;5073418;28;20225;-68
2023/03/04 06:09:34;;;;;;;4.10;2.10;;;;;;;;;;5073655;28;20236;-67
2023/03/04 06:12:01;;;;;;;4.53;2.40;;;;;;;;;;5073366;28;20614;-67
2023/03/04 06:14:29;;;;;;;7.25;2.85;;;;;;;;;;5073970;28;20204;-67
2023/03/04 06:16:57;;;;;;;9.98;3.08;;;;;;;;;;5073752;28;20289;-70
2023/03/04 06:19:24;;;;;;;5.28;2.30;;;;;;;;;;5073456;28;20212;-68
2023/03/04 06:21:51;;;;;;;3.85;2.25;;;;;;;;;;5067812;28;20194;-68
2023/03/04 06:24:18;;;;;;;7.63;2.80;;;;;;;;;;5053366;28;20277;-68
2023/03/04 06:26:45;;;;;;;6.32;2.42;;;;;;;;;;5053150;28;20202;-68
2023/03/04 06:29:13;;;;;;;7.90;2.40;;;;;;;;;;5053263;28;20210;-68
2023/03/04 06:31:41;;;;;;;12.07;2.80;;;;;;;;;;5053921;28;20187;-67
2023/03/04 06:34:09;;;;;;;8.93;2.85;;;;;;;;;;5053469;28;20511;-68
2023/03/04 06:36:37;;;;;;;7.68;3.17;;;;;;;;;;5053810;28;20202;-67
2023/03/04 06:39:04;;;;;;;3.90;2.28;;;;;;;;;;5053188;28;20195;-67
2023/03/04 06:41:31;;;;;;;6.68;2.63;;;;;;;;;;5052791;28;20191;-68
2023/03/04 06:43:58;;;;;;;10.45;2.30;;;;;;;;;;5052648;28;20195;-70
2023/03/04 06:46:26;;;;;;;10.43;3.70;;;;;;;;;;5052594;28;20190;-67
2023/03/04 06:48:54;;;;;;;9.88;2.38;;;;;;;;;;5052708;28;20209;-67
2023/03/04 06:51:22;;;;;;;8.50;2.95;;;;;;;;;;5052945;28;20197;-67
2023/03/04 06:53:49;;;;;;;7.00;3.00;;;;;;;;;;5052952;28;20198;-67
2023/03/04 06:56:16;;;;;;;12.60;3.42;;;;;;;;;;5052664;28;20292;-66
2023/03/04 06:58:44;;;;;;;9.10;3.00;;;;;;;;;;5052932;28;20203;-67
2023/03/04 07:01:12;;;;;;;5.65;2.53;;;;;;;;;;5052885;28;20193;-67
2023/03/04 07:03:39;;;;;;;9.68;2.60;;;;;;;;;;5052347;28;20194;-67
2023/03/04 07:06:08;;;;;;;6.15;2.72;;;;;;;;;;5052323;28;20253;-67
2023/03/04 07:08:35;;;;;;;8.18;2.50;;;;;;;;;;5052808;28;20186;-67
2023/03/04 07:11:03;;;;;;;4.03;2.17;;;;;;;;;;5053006;28;20197;-67
2023/03/04 07:13:30;;;;;;;6.70;3.33;;;;;;;;;;5052561;28;20200;-67
2023/03/04 07:15:57;;;;;;;7.05;2.53;;;;;;;;;;5052795;28;20198;-67
2023/03/04 07:18:24;;;;;;;9.10;2.63;;;;;;;;;;5052232;28;20198;-67
2023/03/04 07:20:52;;;;;;;6.50;2.80;;;;;;;;;;5052865;28;20197;-67
2023/03/04 07:23:21;;;;;;;6.00;2.30;;;;;;;;;;5052258;28;20189;-68
2023/03/04 07:25:49;;;;;;;6.53;2.30;;;;;;;;;;5052168;28;20519;-68
2023/03/04 07:28:17;;;;;;;6.15;2.40;;;;;;;;;;5052875;28;20272;-67
2023/03/04 07:30:44;;;;;;;5.50;2.45;;;;;;;;;;5052180;28;20227;-67
2023/03/04 07:33:14;;;;;;;9.02;2.33;;;;;;;;;;5052905;28;20194;-67
2023/03/04 07:35:41;;;;;;;3.58;2.35;;;;;;;;;;5052605;28;20193;-67
2023/03/04 07:38:08;;;;;;;6.18;3.05;;;;;;;;;;5052320;28;20204;-68
2023/03/04 07:40:37;;;;;;;6.80;2.33;;;;;;;;;;5052508;28;20284;-68
2023/03/04 07:43:04;;;;;;;6.25;2.30;;;;;;;;;;5052628;28;20637;-67
2023/03/04 07:45:32;;;;;;;8.10;2.88;;;;;;;;;;5051548;28;20640;-67
2023/03/04 07:47:59;;;;;;;19.33;3.15;;;;;;;;;;5052451;28;20204;-68
2023/03/04 07:50:26;;;;;;;8.20;2.42;;;;;;;;;;5051994;28;20214;-68
2023/03/04 07:52:53;;;;;;;6.65;2.47;;;;;;;;;;5052413;28;20535;-67
2023/03/04 07:55:21;;;;;;;15.88;4.95;;;;;;;;;;5052300;28;20543;-67
2023/03/04 07:57:49;;;;;;;5.93;3.22;;;;;;;;;;5052452;28;20217;-67
2023/03/04 08:00:17;;;;;;;7.65;2.60;;;;;;;;;;5052064;28;20213;-67
2023/03/04 08:02:44;;;;;;;6.95;3.25;;;;;;;;;;5051947;28;20233;-67
2023/03/04 08:05:12;;;;;;;7.30;2.95;;;;;;;;;;5051555;28;20226;-67
2023/03/04 08:07:39;;;;;;;10.27;2.80;;;;;;;;;;5052806;28;20248;-67
2023/03/04 08:10:07;;;;;;;9.02;3.50;;;;;;;;;;5052505;28;20277;-67
2023/03/04 08:12:35;;;;;;;10.63;2.80;;;;;;;;;;5051965;28;20284;-67
2023/03/04 08:15:04;;;;;;;8.50;3.13;;;;;;;;;;5051870;28;20209;-67
2023/03/04 08:17:31;;;;;;;11.57;3.28;;;;;;;;;;5051817;28;20194;-67
2023/03/04 08:19:58;;;;;;;10.35;3.30;;;;;;;;;;5052199;28;20193;-67
2023/03/04 08:22:25;;;;;;;5.57;2.80;;;;;;;;;;5052060;28;20187;-67
2023/03/04 08:24:52;;;;;;;6.93;2.80;;;;;;;;;;5051934;28;20202;-66
2023/03/04 08:27:19;;;;;;;5.80;2.88;;;;;;;;;;5051434;28;20194;-67
2023/03/04 08:29:47;;;;;;;8.70;3.42;;;;;;;;;;5052760;28;20213;-67
2023/03/04 08:32:15;;;;;;;10.93;3.75;;;;;;;;;;5055799;28;20203;-67
2023/03/04 08:34:42;;;;;;;10.60;2.80;;;;;;;;;;5055851;28;20702;-67
2023/03/04 08:37:10;;;;;;;4.40;3.10;;;;;;;;;;5055415;28;20186;-67
2023/03/04 08:39:37;;;;;;;3.92;3.38;;;;;;;;;;5055110;28;20206;-67
2023/03/04 08:42:04;;;;;;;9.05;3.25;;;;;;;;;;5055077;28;20201;-67
2023/03/04 08:44:31;;;;;;;12.48;3.67;;;;;;;;;;5055117;28;20208;-68
2023/03/04 08:46:58;;;;;;;7.25;3.67;;;;;;;;;;5054899;28;20657;-67
2023/03/04 08:49:27;;;;;;;10.57;3.30;;;;;;;;;;5055160;28;20223;-67
2023/03/04 08:51:54;;;;;;;7.43;2.97;;;;;;;;;;5055406;28;20200;-67
2023/03/04 08:54:21;;;;;;;7.05;4.13;;;;;;;;;;5055296;28;20197;-67
2023/03/04 08:56:48;;;;;;;9.45;5.20;;;;;;;;;;5055340;28;20196;-66
2023/03/04 08:59:16;;;;;;;5.13;3.72;;;;;;;;;;5055092;28;20194;-67
2023/03/04 09:01:43;;;;;;;12.57;5.10;;;;;;;;;;5055107;28;20190;-66
2023/03/04 09:04:10;;;;;;;7.90;4.40;;;;;;;;;;5055089;28;20544;-67
2023/03/04 09:06:39;;;;;;;7.93;3.88;;;;;;;;;;5054564;28;20236;-66
2023/03/04 09:09:06;;;;;;;9.40;3.83;;;;;;;;;;5055215;28;20209;-66
2023/03/04 09:11:34;;;;;;;9.18;4.00;;;;;;;;;;5054795;28;20325;-66
2023/03/04 09:14:01;;;;;;;8.38;3.15;;;;;;;;;;5054679;28;20197;-66
2023/03/04 09:16:29;;;;;;;4.60;3.78;;;;;;;;;;5054572;28;20275;-66
2023/03/04 09:18:56;;;;;;;8.50;4.18;;;;;;;;;;5054807;28;20278;-66
2023/03/04 09:21:23;;;;;;;6.13;4.03;;;;;;;;;;5054228;28;20203;-67
2023/03/04 09:23:52;;;;;;;3.80;2.38;;;;;;;;;;5054149;28;20193;-66
2023/03/04 09:26:21;;;;;;;13.68;3.95;;;;;;;;;;5053711;28;20194;-66
2023/03/04 09:28:50;;;;;;;9.27;4.60;;;;;;;;;;5054239;28;20248;-66
2023/03/04 09:31:18;;;;;;;7.43;4.00;;;;;;;;;;5054027;28;20214;-67
2023/03/04 09:33:45;;;;;;;11.43;4.50;;;;;;;;;;5054187;28;20195;-66
2023/03/04 09:36:12;;;;;;;3.50;3.20;;;;;;;;;;5054632;28;20555;-66
2023/03/04 09:38:40;;;;;;;5.25;3.25;;;;;;;;;;5054143;28;20617;-66
2023/03/04 09:41:10;;;;;;;5.47;2.90;;;;;;;;;;5054056;28;20710;-66
2023/03/04 09:43:39;;;;;;;8.95;3.15;;;;;;;;;;5054139;28;20202;-66
2023/03/04 09:46:08;;;;;;;4.07;2.38;;;;;;;;;;5053578;28;20634;-66
2023/03/04 09:48:40;;;;;;;10.45;4.25;;;;;;;;;;5054419;28;20627;-67
2023/03/04 09:51:11;;;;;;;13.15;4.35;;;;;;;;;;5054167;28;20542;-65
2023/03/04 09:53:42;;;;;;;8.27;3.60;;;;;;;;;;5033993;28;20622;-66
2023/03/04 09:56:11;;;;;;;5.75;3.45;;;;;;;;;;5034544;28;20197;-65
2023/03/04 09:58:43;;;;;;;8.52;3.90;;;;;;;;;;5034204;28;20230;-65
2023/03/04 10:01:12;;;;;;;11.25;4.10;;;;;;;;;;5034304;28;20182;-66
2023/03/04 10:03:43;;;;;;;10.18;4.07;;;;;;;;;;5034029;28;20201;-66
2023/03/04 10:06:12;;;;;;;6.70;3.55;;;;;;;;;;5033176;28;20233;-65
2023/03/04 10:08:42;;;;;;;7.47;3.72;;;;;;;;;;5034265;28;20192;-66
2023/03/04 10:11:13;;;;;;;6.63;3.65;;;;;;;;;;5033683;28;20220;-66
2023/03/04 10:13:44;;;;;;;12.55;3.63;;;;;;;;;;5033778;28;20584;-67
2023/03/04 10:16:15;;;;;;;4.65;2.80;;;;;;;;;;5033990;28;20195;-67
2023/03/04 10:18:44;;;;;;;7.65;2.88;;;;;;;;;;5033867;28;20183;-68
2023/03/04 10:21:18;;;;;;;6.13;3.03;;;;;;;;;;5033818;28;20285;-67
2023/03/04 10:23:46;;;;;;;4.50;2.95;;;;;;;;;;5033324;28;20183;-68
2023/03/04 10:26:16;;;;;;;6.53;3.00;;;;;;;;;;5032777;28;20195;-65
2023/03/04 10:28:43;;;;;;;2.65;2.22;;;;;;;;;;5033536;28;20282;-66
2023/03/04 10:31:13;;;;;;;8.23;2.47;;;;;;;;;;5033552;28;20219;-66
2023/03/04 10:33:41;;;;;;;11.10;2.90;;;;;;;;;;5033067;28;20675;-66
2023/03/04 10:36:15;;;;;;;4.97;3.42;;;;;;;;;;5033727;28;20217;-66
2023/03/04 10:38:43;;;;;;;3.90;3.35;;;;;;;;;;5033761;28;20187;-66
2023/03/04 10:41:15;;;;;;;5.60;3.33;;;;;;;;;;5033021;28;20267;-66
2023/03/04 10:43:45;;;;;;;8.38;3.80;;;;;;;;;;5033351;28;20621;-66
2023/03/04 10:46:13;;;;;;;10.20;3.20;;;;;;;;;;5033048;28;20242;-66
2023/03/04 10:48:41;;;;;;;8.48;3.47;;;;;;;;;;5033395;28;20191;-66
2023/03/04 10:51:13;;;;;;;3.95;2.95;;;;;;;;;;5033162;28;20233;-66
2023/03/04 10:53:42;;;;;;;5.30;3.00;;;;;;;;;;5032653;28;20245;-65
2023/03/04 10:56:24;;;;;;;6.00;2.75;;;;;;;;;;5033205;28;20195;-65
2023/03/04 10:58:52;;;;;;;3.30;3.00;;;;;;;;;;5033037;28;20198;-66
2023/03/04 11:01:24;;;;;;;7.43;2.38;;;;;;;;;;5033417;28;20191;-65
2023/03/04 11:03:51;;;;;;;2.85;2.65;;;;;;;;;;5033680;28;20175;-65
2023/03/04 11:06:19;;;;;;;2.95;2.75;;;;;;;;;;5032670;28;20230;-65
2023/03/04 11:08:54;;;;;;;4.47;3.00;;;;;;;;;;5032740;28;20383;-65
2023/03/04 11:11:23;;;;;;;2.53;2.33;;;;;;;;;;5032711;28;20261;-65
2023/03/04 11:13:57;;;;;;;4.38;2.85;;;;;;;;;;5032803;28;20195;-65
2023/03/04 11:16:26;;;;;;;5.72;3.05;;;;;;;;;;5033170;28;20188;-65
2023/03/04 11:18:54;;;;;;;6.63;3.28;;;;;;;;;;5047918;28;20245;-66
2023/03/04 11:21:22;;;;;;;8.68;3.28;;;;;;;;;;5052514;28;20217;-66
2023/03/04 11:23:51;;;;;;;4.45;3.83;;;;;;;;;;5052335;28;20194;-66
2023/03/04 11:26:20;;;;;;;4.57;3.60;;;;;;;;;;5051617;28;20198;-66
2023/03/04 11:28:50;;;;;;;7.63;3.80;;;;;;;;;;5052439;28;20232;-66
2023/03/04 11:31:21;;;;;;;3.42;2.50;;;;;;;;;;5052186;28;20217;-67
2023/03/04 11:33:52;;;;;;;3.03;2.28;;;;;;;;;;5052392;28;20197;-66
2023/03/04 11:36:30;;;;;;;3.78;2.72;;;;;;;;;;5052557;28;20191;-67
2023/03/04 11:38:57;;;;;;;3.50;2.53;;;;;;;;;;5051455;28;20273;-68
2023/03/04 11:41:30;;;;;;;5.18;2.95;;;;;;;;;;5052042;28;20611;-67
2023/03/04 11:43:58;;;;;;;3.97;3.28;;;;;;;;;;5052292;28;20640;-67
2023/03/04 11:46:43;;;;;;;4.45;2.80;;;;;;;;;;5052058;28;20191;-68
2023/03/04 11:49:24;;;;;;;6.32;3.22;;;;;;;;;;5032216;28;20179;-67
2023/03/04 11:51:56;;;;;;;3.83;2.85;;;;;;;;;;5032527;28;20547;-67
2023/03/04 11:54:29;;;;;;;2.75;2.38;;;;;;;;;;5032254;28;20188;-67
2023/03/04 11:56:59;;;;;;;5.97;2.65;;;;;;;;;;5032082;28;20180;-68
2023/03/04 11:59:43;;;;;;;4.43;2.10;;;;;;;;;;5032120;28;20184;-66
2023/03/04 12:02:20;;;;;;;3.05;2.33;;;;;;;;;;5032805;28;20258;-66
2023/03/04 12:05:15;;;;;;;4.40;3.03;;;;;;;;;;5034892;28;20183;-67
2023/03/04 12:07:47;;;;;;;2.15;1.70;;;;;;;;;;4989556;28;20215;-66
2023/03/04 12:10:20;;;;;;;4.93;2.10;;;;;;;;;;5035823;28;20186;-66
2023/03/04 12:12:55;;;;;;;3.92;2.05;;;;;;;;;;5036449;28;20182;-66
2023/03/04 12:15:29;;;;;;;3.45;2.00;;;;;;;;;;5036355;28;20191;-66
2023/03/04 12:18:11;;;;;;;6.65;2.25;;;;;;;;;;5046098;28;20194;-66
2023/03/04 12:20:53;;;;;;;6.72;2.45;;;;;;;;;;5052436;28;20657;-65
2023/03/04 12:23:27;;;;;;;2.58;2.38;;;;;;;;;;5056078;28;20189;-66
2023/03/04 12:25:58;;;;;;;5.60;1.90;;;;;;;;;;5056180;28;20504;-66
2023/03/04 12:28:40;;;;;;;8.07;2.45;;;;;;;;;;5055886;28;20176;-65
2023/03/04 12:31:27;;;;;;;12.57;2.70;;;;;;;;;;5051974;28;20288;-65
2023/03/04 12:34:13;;;;;;;5.13;2.35;;;;;;;;;;5055730;28;20189;-66
2023/03/04 12:36:43;;;;;;;5.90;2.47;;;;;;;;;;5055564;28;20190;-66
2023/03/04 12:39:20;;;;;;;4.93;2.28;;;;;;;;;;5054841;28;20248;-66
2023/03/04 12:41:52;;;;;;;7.05;2.65;;;;;;;;;;5055809;28;20210;-64
2023/03/04 12:44:20;;;;;;;6.45;2.30;;;;;;;;;;5055374;28;20584;-66
2023/03/04 12:46:56;;;;;;;9.65;3.50;;;;;;;;;;5055114;28;20538;-65
2023/03/04 12:49:29;;;;;;;12.45;3.58;;;;;;;;;;5055281;28;20186;-66
2023/03/04 12:52:02;;;;;;;13.02;5.85;;;;;;;;;;5055316;28;20213;-66
2023/03/04 12:54:32;;;;;;;7.45;3.47;;;;;;;;;;5055331;28;20187;-66
2023/03/04 12:57:01;;;;;;;10.18;3.53;;;;;;;;;;5055157;28;20209;-67
2023/03/04 12:59:32;;;;;;;7.43;2.90;;;;;;;;;;5054492;28;20194;-65
2023/03/04 13:02:05;;;;;;;7.40;2.53;;;;;;;;;;5055664;28;20187;-65
2023/03/04 13:04:40;;;;;;;9.23;2.40;;;;;;;;;;5055301;28;20183;-65
2023/03/04 13:07:12;;;;;;;10.68;2.55;;;;;;;;;;5055291;28;20222;-65
2023/03/04 13:09:46;;;;;;;7.53;3.28;;;;;;;;;;5055085;28;20187;-65
2023/03/04 13:12:15;;;;;;;7.47;2.92;;;;;;;;;;5055099;28;20205;-65
2023/03/04 13:15:02;;;;;;;6.03;2.72;;;;;;;;;;5055032;28;20199;-66
2023/03/04 13:17:39;;;;;;;14.25;2.60;;;;;;;;;;5053674;28;20644;-66
2023/03/04 13:20:19;;;;;;;6.97;2.90;;;;;;;;;;5053900;28;20543;-65
2023/03/04 13:22:48;;;;;;;10.55;2.70;;;;;;;;;;5054767;28;20187;-66
2023/03/04 13:25:30;;;;;;;8.15;2.75;;;;;;;;;;5054255;28;20202;-66
2023/03/04 13:28:17;;;;;;;2.67;1.90;;;;;;;;;;5054291;28;20175;-65
2023/03/04 13:31:05;;;;;;;6.70;2.88;;;;;;;;;;5054481;28;20532;-66
2023/03/04 13:33:56;;;;;;;6.55;2.00;;;;;;;;;;5054431;28;20187;-65
2023/03/04 13:36:28;;;;;;;8.23;2.83;;;;;;;;;;5030119;28;20537;-65
2023/03/04 13:39:00;;;;;;;7.00;2.50;;;;;;;;;;5053488;28;20214;-66
2023/03/04 13:41:32;;;;;;;3.55;1.67;;;;;;;;;;5054057;28;20476;-66
2023/03/04 13:43:59;;;;;;;4.90;2.30;;;;;;;;;;5054770;28;20191;-65
2023/03/04 13:46:31;;;;;;;7.38;3.38;;;;;;;;;;5054440;28;20191;-66
2023/03/04 13:49:03;;;;;;;2.58;1.67;;;;;;;;;;5054109;28;20190;-67
2023/03/04 13:51:31;;;;;;;3.45;1.90;;;;;;;;;;5054525;28;20551;-65
2023/03/04 13:54:08;;;;;;;6.47;1.90;;;;;;;;;;5054078;28;20632;-65
2023/03/04 13:56:37;;;;;;;3.15;1.50;;;;;;;;;;5054269;28;20269;-66
2023/03/04 13:59:36;;;;;;;5.65;1.80;;;;;;;;;;5053436;28;20524;-66
2023/03/04 14:02:11;;;;;;;6.43;1.77;;;;;;;;;;4954257;29;20197;-66
2023/03/04 14:04:39;;;;;;;9.57;2.10;;;;;;;;;;5037403;28;20194;-66
2023/03/04 14:07:18;;;;;;;8.43;2.45;;;;;;;;;;5054220;28;20581;-66
2023/03/04 14:09:54;;;;;;;6.73;1.57;;;;;;;;;;5053686;28;20232;-66
2023/03/04 14:12:23;;;;;;;9.00;2.40;;;;;;;;;;5053353;28;20957;-66
2023/03/04 14:14:53;;;;;;;6.68;1.85;;;;;;;;;;5053323;28;20190;-66
2023/03/04 14:17:21;;;;;;;9.27;2.40;;;;;;;;;;5053415;28;20195;-66
2023/03/04 14:19:49;;;;;;;6.35;2.20;;;;;;;;;;5052486;28;20751;-67
2023/03/04 14:22:24;;;;;;;6.53;2.47;;;;;;;;;;5053330;28;20198;-66
2023/03/04 14:24:59;;;;;;;5.50;2.85;;;;;;;;;;5053500;28;20224;-66
2023/03/04 14:27:27;;;;;;;5.80;1.95;;;;;;;;;;5053241;28;20197;-66
2023/03/04 14:29:58;;;;;;;11.23;3.05;;;;;;;;;;5052911;28;20222;-66
2023/03/04 14:32:25;;;;;;;4.78;2.15;;;;;;;;;;5053243;28;20225;-66
2023/03/04 14:34:58;;;;;;;8.45;2.50;;;;;;;;;;5053211;28;20193;-66
2023/03/04 14:37:26;;;;;;;3.85;1.90;;;;;;;;;;5053383;28;20181;-66
2023/03/04 14:39:55;;;;;;;7.03;3.63;;;;;;;;;;5052434;28;20204;-66
2023/03/04 14:42:23;;;;;;;3.22;1.85;;;;;;;;;;5053227;28;20195;-66
2023/03/04 14:44:52;;;;;;;6.57;3.30;;;;;;;;;;5053329;28;20548;-66
2023/03/04 14:47:22;;;;;;;9.73;4.10;;;;;;;;;;5052215;28;20241;-66
2023/03/04 14:49:49;;;;;;;9.55;3.58;;;;;;;;;;5052374;28;20186;-66
2023/03/04 14:52:33;;;;;;;7.13;3.35;;;;;;;;;;5052453;28;20210;-66